Time;durP1;ratioP1;P1;durP2;ratioP2;P2;SDS_P1;SDS_P2;PMS_P1;PMS_P2;Temp;Humidity;BMP_temperature;BMP_pressure;BME280_temperature;BME280_humidity;BME280_pressure;Samples;Min_cycle;Max_cycle;Signal;HPM_P1;HPM_P2
2022/01/19 00:02:06;;;;;;;7.20;4.60;;;1.80;96.30;;;;;;4899732;29;20232;-78
2022/01/19 00:04:32;;;;;;;6.00;5.40;;;1.90;96.30;;;;;;4899347;29;20216;-79
2022/01/19 00:06:57;;;;;;;8.90;5.87;;;1.80;96.30;;;;;;4899644;29;20546;-79
2022/01/19 00:09:24;;;;;;;7.10;4.70;;;1.80;96.30;;;;;;4897583;29;20196;-78
2022/01/19 00:11:49;;;;;;;6.10;4.83;;;1.70;96.30;;;;;;4878708;29;20265;-80
2022/01/19 00:14:15;;;;;;;4.77;4.30;;;1.70;96.30;;;;;;4882241;29;20454;-80
2022/01/19 00:16:40;;;;;;;8.70;5.57;;;1.70;96.30;;;;;;4881319;29;20209;-79
2022/01/19 00:19:06;;;;;;;6.33;4.63;;;1.70;96.30;;;;;;4880078;29;20209;-80
2022/01/19 00:21:33;;;;;;;6.93;5.30;;;1.70;96.30;;;;;;4881890;29;20205;-80
2022/01/19 00:23:58;;;;;;;5.97;4.53;;;1.70;96.30;;;;;;4880218;29;20182;-79
2022/01/19 00:26:24;;;;;;;8.57;4.70;;;1.60;96.30;;;;;;4880996;29;21014;-80
2022/01/19 00:28:49;;;;;;;7.40;4.80;;;1.60;96.30;;;;;;4882146;29;20198;-80
2022/01/19 00:31:15;;;;;;;6.20;5.07;;;1.60;96.30;;;;;;4881605;29;20178;-80
2022/01/19 00:33:40;;;;;;;5.73;4.70;;;1.60;96.30;;;;;;4881708;29;20691;-80
2022/01/19 00:36:06;;;;;;;6.50;3.23;;;1.50;96.30;;;;;;4880737;29;20200;-80
2022/01/19 00:38:31;;;;;;;5.77;3.63;;;1.50;96.30;;;;;;4881445;29;20676;-80
2022/01/19 00:40:57;;;;;;;3.97;3.40;;;1.60;96.30;;;;;;4881607;29;20567;-80
2022/01/19 00:43:23;;;;;;;5.80;3.40;;;1.60;96.30;;;;;;4882718;29;20662;-80
2022/01/19 00:45:49;;;;;;;3.87;3.20;;;1.70;96.30;;;;;;4882658;29;20440;-80
2022/01/19 00:48:14;;;;;;;4.60;3.40;;;1.70;96.30;;;;;;4884143;29;20182;-80
2022/01/19 00:50:40;;;;;;;4.60;3.40;;;1.70;96.30;;;;;;4883611;29;20529;-80
2022/01/19 00:53:05;;;;;;;6.23;4.67;;;1.70;96.30;;;;;;4879473;29;20710;-80
2022/01/19 00:55:31;;;;;;;9.20;7.20;;;1.70;96.30;;;;;;4878622;29;20623;-80
2022/01/19 00:57:56;;;;;;;5.27;4.37;;;1.70;96.30;;;;;;4879055;29;20202;-80
2022/01/19 05:04:07;;;;;;;5.90;5.20;;;-0.10;96.30;;;;;;4880292;29;20770;-77
2022/01/19 05:06:36;;;;;;;5.50;4.80;;;-0.20;96.30;;;;;;4878214;29;21080;-76
2022/01/19 05:09:09;;;;;;;4.10;3.57;;;-0.20;96.30;;;;;;4878753;29;20425;-76
2022/01/19 05:14:19;;;;;;;3.97;3.27;;;-0.30;96.30;;;;;;4881258;29;20421;-78
2022/01/19 05:16:44;;;;;;;3.97;3.57;;;-0.40;96.30;;;;;;4883049;29;20418;-78
2022/01/19 05:19:10;;;;;;;3.60;3.27;;;-0.40;96.30;;;;;;4865704;29;20269;-78
2022/01/19 05:29:14;;;;;;;5.70;3.57;;;-0.40;96.30;;;;;;4896665;29;20477;-77
2022/01/19 05:31:39;;;;;;;3.83;3.30;;;-0.40;96.30;;;;;;4881508;29;20437;-76
2022/01/19 05:34:05;;;;;;;3.90;3.47;;;-0.50;96.30;;;;;;4898412;29;20188;-76
2022/01/19 05:36:30;;;;;;;5.50;3.87;;;-0.50;96.30;;;;;;4896599;29;20236;-76
2022/01/19 05:38:57;;;;;;;3.83;3.30;;;-0.50;96.30;;;;;;4896912;29;20223;-77
2022/01/19 05:41:22;;;;;;;3.17;2.80;;;-0.60;96.30;;;;;;4880647;29;20196;-78
2022/01/19 05:43:48;;;;;;;3.23;2.90;;;-0.60;96.30;;;;;;4881390;29;20444;-78
2022/01/19 05:46:14;;;;;;;4.20;3.40;;;-0.70;96.30;;;;;;4897605;29;20185;-78
2022/01/19 05:48:39;;;;;;;4.73;3.23;;;-0.70;96.30;;;;;;4884508;29;20192;-78
2022/01/19 05:51:05;;;;;;;4.17;3.17;;;-0.70;96.30;;;;;;4885047;29;20263;-78
2022/01/19 05:53:31;;;;;;;4.90;3.63;;;-0.70;96.30;;;;;;4905137;29;20221;-78
2022/01/19 05:55:56;;;;;;;5.97;4.40;;;-0.80;96.30;;;;;;4875349;29;20193;-78
2022/01/19 05:58:22;;;;;;;3.83;3.10;;;-0.80;96.30;;;;;;4881028;29;20540;-78
2022/01/19 06:00:48;;;;;;;4.20;3.17;;;-0.70;96.30;;;;;;4881003;29;20630;-78
2022/01/19 06:03:13;;;;;;;4.00;2.80;;;-0.70;96.30;;;;;;4867070;29;20233;-78
2022/01/19 06:05:38;;;;;;;3.87;2.80;;;-0.70;96.30;;;;;;4879032;29;20229;-76
2022/01/19 06:08:19;;;;;;;5.30;3.40;;;-0.70;96.30;;;;;;4862156;29;20352;-77
2022/01/19 06:10:45;;;;;;;7.13;4.00;;;-0.70;96.30;;;;;;4896029;29;20200;-77
2022/01/19 06:13:16;;;;;;;3.90;2.97;;;-0.80;96.30;;;;;;4897166;29;20530;-78
2022/01/19 06:15:43;;;;;;;8.20;2.73;;;-0.80;96.30;;;;;;4896985;29;20429;-78
2022/01/19 06:18:10;;;;;;;6.57;2.40;;;-0.80;96.30;;;;;;4880478;29;20473;-78
2022/01/19 06:20:35;;;;;;;3.43;3.13;;;-0.70;96.30;;;;;;4897347;29;20827;-77
2022/01/19 06:23:01;;;;;;;3.30;3.00;;;-0.70;96.30;;;;;;4880541;29;20432;-77
2022/01/19 06:25:26;;;;;;;4.90;3.63;;;-0.80;96.30;;;;;;4879956;29;20478;-77
2022/01/19 06:27:52;;;;;;;5.27;3.40;;;-0.80;96.30;;;;;;4897181;29;20197;-78
2022/01/19 06:30:17;;;;;;;4.90;3.77;;;-0.80;96.30;;;;;;4880726;29;20169;-78
2022/01/19 06:32:43;;;;;;;2.90;2.30;;;-0.90;96.30;;;;;;4880319;29;20184;-77
2022/01/19 06:35:09;;;;;;;5.00;2.67;;;-1.00;96.30;;;;;;4896875;29;20548;-78
2022/01/19 06:37:35;;;;;;;2.60;2.40;;;-1.00;96.30;;;;;;4897175;29;20181;-76
2022/01/19 06:40:03;;;;;;;3.30;3.00;;;-1.00;96.30;;;;;;4878188;29;20988;-76
2022/01/19 06:42:29;;;;;;;5.10;3.60;;;-0.90;96.30;;;;;;4879181;29;20207;-78
2022/01/19 06:44:55;;;;;;;6.30;4.50;;;-1.10;96.30;;;;;;4878148;29;20417;-77
2022/01/19 06:47:20;;;;;;;4.27;3.53;;;-1.30;96.30;;;;;;4880320;29;20177;-78
2022/01/19 06:49:47;;;;;;;2.90;2.70;;;-1.40;96.30;;;;;;4897242;29;20196;-77
2022/01/19 06:52:12;;;;;;;3.47;2.97;;;-1.60;96.30;;;;;;4897025;29;20211;-77
2022/01/19 06:54:38;;;;;;;3.47;3.10;;;-1.60;96.30;;;;;;4880157;29;20508;-77
2022/01/19 06:57:03;;;;;;;3.30;3.00;;;-1.60;96.30;;;;;;4897024;29;20225;-79
2022/01/19 06:59:29;;;;;;;4.10;3.70;;;-1.50;96.30;;;;;;4880226;29;20209;-78
2022/01/19 07:01:54;;;;;;;10.03;4.87;;;-1.40;96.30;;;;;;4880170;29;20208;-79
2022/01/19 07:04:20;;;;;;;4.83;4.40;;;-1.30;96.30;;;;;;4880162;29;20191;-78
2022/01/19 07:06:45;;;;;;;3.63;3.27;;;-1.20;96.30;;;;;;4897131;29;20173;-76
2022/01/19 07:09:11;;;;;;;5.13;3.70;;;-1.10;96.30;;;;;;4874956;29;20182;-78
2022/01/19 07:11:37;;;;;;;4.50;4.10;;;-1.10;96.30;;;;;;4878041;29;20201;-77
2022/01/19 07:14:03;;;;;;;4.10;3.70;;;-1.10;96.30;;;;;;4878606;29;20201;-78
2022/01/19 07:16:29;;;;;;;4.93;4.20;;;-1.10;96.30;;;;;;4861449;29;20190;-77
2022/01/19 07:18:54;;;;;;;4.83;4.03;;;-1.00;96.30;;;;;;4879311;29;21020;-77
2022/01/19 07:21:20;;;;;;;6.37;4.30;;;-1.00;96.30;;;;;;4877592;29;20205;-79
2022/01/19 07:23:45;;;;;;;6.10;5.30;;;-1.10;96.30;;;;;;4861842;29;20231;-79
2022/01/19 07:26:11;;;;;;;4.83;4.33;;;-1.00;96.30;;;;;;4866408;29;20181;-78
2022/01/19 07:28:36;;;;;;;6.27;5.30;;;-1.00;96.30;;;;;;4874814;29;20201;-77
2022/01/19 07:31:02;;;;;;;4.87;4.47;;;-0.90;96.30;;;;;;4861773;29;20746;-78
2022/01/19 07:33:27;;;;;;;6.93;5.20;;;-0.90;96.30;;;;;;4878474;29;20201;-78
2022/01/19 07:35:53;;;;;;;6.17;5.20;;;-0.90;96.30;;;;;;4850470;29;20261;-78
2022/01/19 07:38:19;;;;;;;6.17;4.97;;;-0.80;96.30;;;;;;4842854;29;20686;-78
2022/01/19 07:40:45;;;;;;;6.70;6.07;;;-0.80;96.30;;;;;;4871156;29;20205;-78
2022/01/19 07:43:10;;;;;;;7.70;5.97;;;-0.80;96.30;;;;;;4878476;29;20462;-78
2022/01/19 07:45:36;;;;;;;7.97;5.93;;;-0.80;96.30;;;;;;4877969;29;20559;-79
2022/01/19 07:48:02;;;;;;;8.10;6.10;;;-0.80;96.30;;;;;;4861518;29;20185;-78
2022/01/19 07:50:27;;;;;;;6.60;5.50;;;-0.70;96.30;;;;;;4862192;29;20180;-79
2022/01/19 07:52:53;;;;;;;6.87;5.23;;;-0.60;96.30;;;;;;4881451;29;20188;-79
2022/01/19 07:55:19;;;;;;;6.50;5.70;;;-0.60;96.30;;;;;;4881326;29;20588;-79
2022/01/19 07:57:49;;;;;;;7.53;6.57;;;-0.50;96.30;;;;;;4881181;29;20182;-79
2022/01/19 08:00:15;;;;;;;7.17;5.93;;;-0.50;96.30;;;;;;4864469;29;20197;-79
2022/01/19 08:02:40;;;;;;;6.53;5.23;;;-0.50;96.30;;;;;;4864400;29;21159;-81
2022/01/19 08:05:07;;;;;;;6.33;5.53;;;-0.50;96.30;;;;;;4864327;29;20418;-80
2022/01/19 08:07:33;;;;;;;7.47;6.23;;;-0.50;96.30;;;;;;4882263;29;20178;-80
2022/01/19 08:09:59;;;;;;;6.67;5.23;;;-0.40;96.30;;;;;;4870333;29;20514;-79
2022/01/19 08:12:25;;;;;;;6.10;5.17;;;-0.30;96.30;;;;;;4862385;29;20442;-79
2022/01/19 08:14:51;;;;;;;6.00;5.40;;;-0.30;96.30;;;;;;4860922;29;20434;-79
2022/01/19 08:17:17;;;;;;;9.23;6.20;;;-0.30;96.30;;;;;;4845591;29;20179;-79
2022/01/19 08:19:42;;;;;;;9.70;6.13;;;-0.30;96.30;;;;;;4862391;29;20250;-79
2022/01/19 08:22:08;;;;;;;6.83;5.43;;;-0.20;96.30;;;;;;4862344;29;20449;-79
2022/01/19 08:24:33;;;;;;;8.53;5.87;;;-0.20;96.30;;;;;;4860765;29;20183;-79
2022/01/19 08:26:59;;;;;;;9.00;6.10;;;-0.10;96.30;;;;;;4862072;29;20182;-79
2022/01/19 08:29:24;;;;;;;7.23;4.90;;;-0.10;96.30;;;;;;4860994;29;20298;-79
2022/01/19 08:31:50;;;;;;;6.20;4.83;;;0.00;96.30;;;;;;4862032;29;20198;-79
2022/01/19 08:34:17;;;;;;;5.27;4.77;;;0.00;96.30;;;;;;4860870;29;20592;-79
2022/01/19 08:36:43;;;;;;;5.57;4.90;;;0.00;96.30;;;;;;4879389;29;20182;-79
2022/01/19 08:39:09;;;;;;;6.20;5.37;;;0.10;96.30;;;;;;4880601;29;20733;-79
2022/01/19 08:41:35;;;;;;;8.37;5.47;;;0.10;96.30;;;;;;4880587;29;20434;-79
2022/01/19 08:44:01;;;;;;;11.00;5.63;;;0.20;96.30;;;;;;4880450;29;20698;-79
2022/01/19 08:46:26;;;;;;;6.43;5.60;;;0.30;96.30;;;;;;4880433;29;20422;-79
2022/01/19 08:48:52;;;;;;;6.90;5.37;;;0.30;96.30;;;;;;4863817;29;20186;-79
2022/01/19 08:51:17;;;;;;;6.00;5.37;;;0.30;96.30;;;;;;4880454;29;20666;-79
2022/01/19 08:53:43;;;;;;;6.90;5.63;;;0.30;96.30;;;;;;4880470;29;20242;-79
2022/01/19 08:56:08;;;;;;;5.50;3.70;;;0.30;96.30;;;;;;4880027;29;20272;-79
2022/01/19 08:58:34;;;;;;;3.73;3.27;;;0.30;96.30;;;;;;4880229;29;20260;-79
2022/01/19 09:01:00;;;;;;;3.80;3.10;;;0.20;96.30;;;;;;4880104;29;20670;-79
2022/01/19 09:03:25;;;;;;;3.60;3.30;;;0.20;96.30;;;;;;4880144;29;20177;-79
2022/01/19 09:05:51;;;;;;;5.23;3.87;;;0.20;96.30;;;;;;4880087;29;20174;-79
2022/01/19 09:08:16;;;;;;;4.20;3.73;;;0.20;96.30;;;;;;4863713;29;20203;-79
2022/01/19 09:10:42;;;;;;;8.47;4.30;;;0.10;96.30;;;;;;4863198;29;20237;-79
2022/01/19 09:13:09;;;;;;;8.67;5.10;;;0.00;96.30;;;;;;4861595;29;20183;-78
2022/01/19 09:15:36;;;;;;;7.07;5.60;;;0.10;96.30;;;;;;4861107;29;20450;-79
2022/01/19 09:18:02;;;;;;;5.23;4.30;;;0.10;96.30;;;;;;4844603;29;20423;-79
2022/01/19 09:20:27;;;;;;;9.83;3.97;;;0.10;96.30;;;;;;4844774;29;20426;-78
2022/01/19 09:22:53;;;;;;;5.13;4.63;;;0.10;96.30;;;;;;4861419;29;20178;-79
2022/01/19 09:25:18;;;;;;;7.47;5.00;;;0.10;96.30;;;;;;4844392;29;20297;-79
2022/01/19 09:27:44;;;;;;;6.03;4.37;;;0.20;96.30;;;;;;4851587;29;20273;-78
2022/01/19 09:30:14;;;;;;;6.10;4.20;;;0.30;96.30;;;;;;4862754;29;20193;-79
2022/01/19 09:32:41;;;;;;;5.27;3.60;;;0.30;96.30;;;;;;4862888;29;20442;-79
2022/01/19 09:35:09;;;;;;;7.90;5.60;;;0.30;96.30;;;;;;4857730;29;20431;-78
2022/01/19 09:37:37;;;;;;;6.53;5.23;;;0.40;96.30;;;;;;4844464;29;20477;-79
2022/01/19 09:40:05;;;;;;;8.77;5.53;;;0.40;96.30;;;;;;4844084;29;20523;-79
2022/01/19 09:42:31;;;;;;;4.40;3.77;;;0.40;96.30;;;;;;4860550;29;20578;-79
2022/01/19 09:44:56;;;;;;;11.33;4.90;;;0.50;96.30;;;;;;4844186;29;20431;-79
2022/01/19 09:47:22;;;;;;;7.40;4.53;;;0.60;96.30;;;;;;4861038;29;20524;-79
2022/01/19 09:49:47;;;;;;;6.17;4.80;;;0.60;96.30;;;;;;4844574;29;20202;-79
2022/01/19 09:52:13;;;;;;;7.20;5.37;;;0.60;96.30;;;;;;4860797;29;20218;-79
2022/01/19 09:54:39;;;;;;;8.20;5.13;;;0.60;96.30;;;;;;4844347;29;20639;-79
2022/01/19 09:57:05;;;;;;;6.63;5.00;;;0.60;96.30;;;;;;4861016;29;20189;-79
2022/01/19 09:59:31;;;;;;;7.07;4.97;;;0.70;96.30;;;;;;4859242;29;20202;-77
2022/01/19 10:02:01;;;;;;;7.33;5.30;;;0.60;96.30;;;;;;4843310;29;20435;-78
2022/01/19 10:04:32;;;;;;;5.60;4.23;;;0.80;96.30;;;;;;4860383;29;20194;-78
2022/01/19 10:07:16;;;;;;;6.00;4.47;;;0.80;96.30;;;;;;4860184;29;20403;-78
2022/01/19 10:09:57;;;;;;;4.50;4.10;;;0.80;96.30;;;;;;4869234;29;20437;-78
2022/01/19 10:18:13;;;;;;;5.03;4.50;;;1.00;96.30;;;;;;4878762;29;20450;-77
2022/01/19 10:20:39;;;;;;;5.33;3.80;;;1.00;96.30;;;;;;4851898;29;20499;-78
2022/01/19 10:23:12;;;;;;;4.70;3.90;;;1.10;96.30;;;;;;4860042;29;20403;-78
2022/01/19 10:25:49;;;;;;;5.70;4.47;;;1.10;96.30;;;;;;4860492;29;20400;-78
2022/01/19 10:28:15;;;;;;;5.80;4.87;;;1.20;96.30;;;;;;4860435;29;20522;-78
2022/01/19 10:30:40;;;;;;;6.20;4.33;;;1.30;96.30;;;;;;4859884;29;20554;-78
2022/01/19 10:33:06;;;;;;;6.43;4.83;;;1.50;96.30;;;;;;4843581;29;20186;-78
2022/01/19 10:35:37;;;;;;;7.73;5.80;;;2.20;96.30;;;;;;4851731;29;20185;-79
2022/01/19 10:38:27;;;;;;;11.30;6.93;;;3.20;96.30;;;;;;4878807;29;20182;-79
2022/01/19 10:40:58;;;;;;;17.23;7.40;;;4.30;96.30;;;;;;4879637;29;20437;-80
2022/01/19 10:43:44;;;;;;;13.20;7.67;;;5.40;96.30;;;;;;4857290;29;20431;-80
2022/01/19 10:46:15;;;;;;;6.13;3.70;;;5.10;96.30;;;;;;4860743;29;20414;-81
2022/01/19 10:48:42;;;;;;;7.20;4.33;;;6.00;96.30;;;;;;4844507;29;20419;-81
2022/01/19 10:51:20;;;;;;;4.43;3.83;;;6.20;96.30;;;;;;4851765;29;20465;-80
2022/01/19 10:54:04;;;;;;;7.10;5.67;;;6.00;96.30;;;;;;4864638;29;20426;-80
2022/01/19 10:56:30;;;;;;;6.23;4.93;;;6.10;96.30;;;;;;4881183;29;20455;-80
2022/01/19 10:59:02;;;;;;;5.80;4.77;;;6.30;96.30;;;;;;4857149;29;20475;-81
2022/01/19 11:01:33;;;;;;;5.93;4.37;;;6.80;96.30;;;;;;4880420;29;20197;-81
2022/01/19 11:04:21;;;;;;;3.83;3.53;;;6.70;96.30;;;;;;4863871;29;20419;-81
2022/01/19 11:06:49;;;;;;;3.60;3.03;;;7.30;96.30;;;;;;4863499;29;20445;-81
2022/01/19 11:09:15;;;;;;;3.17;2.77;;;7.30;96.30;;;;;;4880327;29;20429;-81
2022/01/19 11:11:43;;;;;;;3.30;3.00;;;8.00;96.30;;;;;;4863275;29;20541;-81
2022/01/19 11:14:18;;;;;;;6.73;3.40;;;7.00;96.30;;;;;;4864730;29;20505;-81
2022/01/19 11:16:44;;;;;;;3.33;3.03;;;7.40;96.30;;;;;;4880798;29;20421;-81
2022/01/19 11:19:11;;;;;;;4.30;3.50;;;7.60;96.30;;;;;;4863856;29;20495;-80
2022/01/19 13:31:12;;;;;;;2.37;1.83;;;6.00;96.30;;;;;;4877273;29;20486;-77
2022/01/19 13:33:38;;;;;;;1.50;1.40;;;5.80;96.30;;;;;;4862656;29;20458;-77
2022/01/19 13:36:04;;;;;;;2.80;1.47;;;5.60;96.30;;;;;;4878983;29;20426;-77
2022/01/19 13:38:30;;;;;;;2.63;1.77;;;5.50;96.30;;;;;;4879105;29;20209;-78
2022/01/19 13:41:05;;;;;;;2.50;1.73;;;5.30;96.30;;;;;;4879058;29;20804;-77
2022/01/19 13:43:33;;;;;;;2.70;2.03;;;5.40;96.30;;;;;;4879178;29;20413;-77
2022/01/19 13:46:12;;;;;;;2.43;2.07;;;5.40;96.30;;;;;;4862051;29;20418;-76
2022/01/19 13:48:39;;;;;;;3.40;2.00;;;5.40;96.30;;;;;;4878357;29;20398;-77
2022/01/19 13:51:09;;;;;;;2.80;2.60;;;5.40;96.30;;;;;;4878917;29;20434;-77
2022/01/19 13:53:40;;;;;;;2.50;2.30;;;5.40;96.30;;;;;;4878920;29;20437;-77
2022/01/19 13:56:11;;;;;;;4.80;2.00;;;5.30;96.30;;;;;;4878563;29;20437;-77
2022/01/19 13:59:07;;;;;;;2.27;2.07;;;5.40;96.30;;;;;;4878819;29;20489;-77
2022/01/19 14:01:49;;;;;;;2.97;1.90;;;5.40;96.30;;;;;;4860472;29;20446;-77
2022/01/19 14:04:15;;;;;;;3.43;2.23;;;5.40;96.30;;;;;;4878642;29;20442;-80
2022/01/19 14:06:47;;;;;;;3.03;2.50;;;5.40;96.30;;;;;;4860003;29;20443;-76
2022/01/19 14:09:27;;;;;;;3.07;2.37;;;5.20;96.30;;;;;;4843617;29;20186;-76
2022/01/19 14:12:06;;;;;;;2.43;2.23;;;4.90;96.30;;;;;;4874256;29;20975;-78
2022/01/19 14:14:36;;;;;;;2.33;2.13;;;4.60;96.30;;;;;;4860000;29;20406;-76
2022/01/19 14:17:05;;;;;;;2.33;2.13;;;4.50;96.30;;;;;;4859965;29;20429;-79
2022/01/19 14:19:32;;;;;;;2.97;2.77;;;4.30;96.30;;;;;;4843481;29;20466;-78
2022/01/19 14:22:08;;;;;;;2.40;2.13;;;4.10;96.30;;;;;;4874143;29;20439;-77
2022/01/19 14:25:04;;;;;;;3.77;2.60;;;3.80;96.30;;;;;;4856592;29;20501;-77
2022/01/19 14:27:32;;;;;;;3.07;2.50;;;3.60;96.30;;;;;;4878600;29;20403;-78
2022/01/19 14:30:16;;;;;;;2.80;2.40;;;3.30;96.30;;;;;;4861424;29;20469;-77
2022/01/19 14:32:55;;;;;;;3.00;2.37;;;3.00;96.30;;;;;;4878347;29;20442;-77
2022/01/19 14:35:40;;;;;;;2.60;2.40;;;2.90;96.30;;;;;;4878129;29;20961;-78
2022/01/19 14:38:19;;;;;;;3.63;2.67;;;2.70;96.30;;;;;;4859749;29;20423;-77
2022/01/19 14:41:04;;;;;;;2.77;2.30;;;2.50;96.30;;;;;;4859645;29;20445;-77
2022/01/19 14:43:43;;;;;;;2.70;2.50;;;2.40;96.30;;;;;;4843192;29;20415;-78
2022/01/19 14:46:12;;;;;;;3.50;3.20;;;2.30;96.30;;;;;;4859501;29;20415;-77
2022/01/19 14:48:46;;;;;;;4.07;3.50;;;2.20;96.30;;;;;;4859725;29;20483;-78
2022/01/19 14:51:23;;;;;;;3.40;2.90;;;2.10;96.30;;;;;;4859623;29;20839;-77
2022/01/19 14:53:48;;;;;;;7.93;2.87;;;2.10;96.30;;;;;;4843206;29;20430;-78
2022/01/19 14:56:14;;;;;;;3.27;3.00;;;2.00;96.30;;;;;;4859243;29;20411;-77
2022/01/19 14:58:40;;;;;;;4.43;3.33;;;2.00;96.30;;;;;;4859882;29;20627;-77
2022/01/19 15:01:05;;;;;;;3.67;3.00;;;1.90;96.30;;;;;;4863089;29;20431;-76
2022/01/19 15:03:32;;;;;;;4.20;3.70;;;1.80;96.30;;;;;;4885632;29;20209;-77
2022/01/19 15:05:57;;;;;;;5.40;3.90;;;1.70;96.30;;;;;;4865136;29;20209;-78
2022/01/19 15:08:23;;;;;;;4.60;4.10;;;1.50;96.30;;;;;;4865183;29;20841;-76
2022/01/19 15:10:48;;;;;;;5.40;3.87;;;1.40;96.30;;;;;;4864096;29;20199;-75
2022/01/19 15:13:14;;;;;;;5.50;4.13;;;1.30;96.30;;;;;;4846566;29;20210;-75
2022/01/19 15:15:39;;;;;;;4.60;4.20;;;1.30;96.30;;;;;;4846204;29;20179;-76
2022/01/19 15:18:06;;;;;;;8.20;5.00;;;1.30;96.30;;;;;;4863129;29;20182;-77
2022/01/19 15:20:36;;;;;;;5.17;4.67;;;1.30;96.30;;;;;;4862966;29;20217;-76
2022/01/19 15:23:02;;;;;;;5.87;4.20;;;1.20;96.30;;;;;;4846556;29;20433;-79
2022/01/19 15:25:29;;;;;;;5.20;4.03;;;1.20;96.30;;;;;;4863286;29;20456;-79
2022/01/19 15:27:55;;;;;;;15.07;11.50;;;1.20;96.30;;;;;;4863620;29;20427;-79
2022/01/19 15:30:21;;;;;;;7.73;5.60;;;1.20;96.30;;;;;;4846450;29;20446;-78
2022/01/19 15:32:47;;;;;;;8.77;6.53;;;1.10;96.30;;;;;;4846824;29;20562;-79
2022/01/19 15:35:13;;;;;;;33.57;20.43;;;1.00;96.30;;;;;;4868599;29;20457;-78
2022/01/19 15:37:39;;;;;;;20.57;12.93;;;1.00;96.30;;;;;;4865034;29;20241;-79
2022/01/19 15:40:12;;;;;;;14.63;10.37;;;1.00;96.30;;;;;;4864818;29;20469;-79
2022/01/19 15:42:42;;;;;;;9.40;6.17;;;0.90;96.30;;;;;;4865070;29;20422;-79
2022/01/19 15:45:08;;;;;;;5.30;3.60;;;0.80;96.30;;;;;;4864523;29;20426;-79
2022/01/19 15:47:34;;;;;;;14.67;10.80;;;0.80;96.30;;;;;;4881629;29;20796;-79
2022/01/19 15:50:00;;;;;;;17.63;8.30;;;0.80;96.30;;;;;;4864572;29;20425;-79
2022/01/19 15:52:26;;;;;;;8.73;5.90;;;0.70;96.30;;;;;;4881358;29;20200;-78
2022/01/19 15:54:54;;;;;;;4.03;3.63;;;0.60;96.30;;;;;;4864277;29;20832;-78
2022/01/19 15:57:20;;;;;;;8.57;4.27;;;0.50;96.30;;;;;;4881241;29;20178;-79
2022/01/19 15:59:45;;;;;;;6.40;3.20;;;0.50;96.30;;;;;;4895565;29;20572;-79
2022/01/19 16:02:11;;;;;;;5.60;2.80;;;0.50;96.30;;;;;;4881132;29;20202;-78
2022/01/19 16:04:36;;;;;;;4.27;3.00;;;0.40;96.30;;;;;;4864119;29;20186;-77
2022/01/19 16:07:02;;;;;;;4.20;3.00;;;0.50;96.30;;;;;;4881242;29;20233;-78
2022/01/19 16:09:28;;;;;;;4.77;2.70;;;0.50;96.30;;;;;;4880119;29;20182;-78
2022/01/19 16:11:54;;;;;;;4.93;2.80;;;0.40;96.30;;;;;;4864009;29;20665;-78
2022/01/19 16:14:20;;;;;;;4.63;3.57;;;0.40;96.30;;;;;;4881431;29;20178;-78
2022/01/19 16:16:46;;;;;;;5.13;3.20;;;0.30;96.30;;;;;;4870389;29;20434;-79
2022/01/19 16:19:12;;;;;;;6.00;3.97;;;0.20;96.30;;;;;;4847768;29;20475;-79
2022/01/19 16:21:39;;;;;;;9.37;3.33;;;0.30;96.30;;;;;;4864899;29;20194;-79
2022/01/19 16:26:49;;;;;;;8.20;4.40;;;0.30;96.30;;;;;;4863984;29;20456;-78
2022/01/19 16:29:15;;;;;;;7.93;5.30;;;0.30;96.30;;;;;;4869759;29;20450;-79
2022/01/19 16:31:43;;;;;;;2.90;2.47;;;0.20;96.30;;;;;;4872077;29;20332;-79
2022/01/19 16:34:10;;;;;;;8.60;4.70;;;0.30;96.30;;;;;;4864095;29;20209;-78
2022/01/19 16:36:35;;;;;;;5.73;3.73;;;0.30;96.30;;;;;;4881204;29;20432;-79
2022/01/19 16:39:01;;;;;;;5.90;4.00;;;0.20;96.30;;;;;;4879703;29;20474;-79
2022/01/19 16:41:28;;;;;;;6.30;4.20;;;0.20;96.30;;;;;;4882144;29;20354;-80
2022/01/19 16:43:55;;;;;;;9.30;6.23;;;0.30;96.30;;;;;;4875212;29;20189;-79
2022/01/19 16:46:22;;;;;;;10.50;4.77;;;0.40;96.30;;;;;;4884407;29;20473;-78
2022/01/19 16:48:48;;;;;;;6.77;3.73;;;0.40;96.30;;;;;;4897127;29;20432;-79
2022/01/19 16:51:14;;;;;;;8.13;3.87;;;0.50;96.30;;;;;;4895720;29;20953;-78
2022/01/19 16:53:40;;;;;;;6.07;4.13;;;0.60;96.30;;;;;;4881606;29;20445;-78
2022/01/19 16:56:07;;;;;;;5.10;3.40;;;0.70;96.30;;;;;;4881643;29;20290;-79
2022/01/19 16:58:35;;;;;;;8.33;4.20;;;0.70;96.30;;;;;;4882365;29;20513;-79
2022/01/19 17:01:06;;;;;;;5.33;4.37;;;0.70;96.30;;;;;;4868063;29;20526;-79
2022/01/19 17:03:33;;;;;;;7.20;4.37;;;0.70;96.30;;;;;;4866476;29;20442;-77
2022/01/19 17:06:02;;;;;;;6.73;4.50;;;0.60;96.30;;;;;;4879647;29;20509;-77
2022/01/19 17:08:28;;;;;;;9.37;5.80;;;0.50;96.30;;;;;;4879573;29;20470;-77
2022/01/19 17:10:56;;;;;;;8.93;5.87;;;0.50;96.30;;;;;;4879614;29;20504;-77
2022/01/19 17:15:55;;;;;;;11.07;7.30;;;0.50;96.30;;;;;;4863583;29;21033;-78
2022/01/19 17:18:21;;;;;;;9.27;6.13;;;0.40;96.30;;;;;;4878365;29;20928;-77
2022/01/19 17:20:47;;;;;;;10.77;7.13;;;0.40;96.30;;;;;;4893751;29;20448;-77
2022/01/19 17:23:13;;;;;;;10.07;7.03;;;0.50;96.30;;;;;;4876465;29;20186;-77
2022/01/19 17:25:39;;;;;;;9.00;6.90;;;0.40;96.30;;;;;;4855316;29;20220;-77
2022/01/19 17:28:06;;;;;;;9.83;7.00;;;0.40;96.30;;;;;;4893928;29;20446;-77
2022/01/19 17:30:33;;;;;;;13.30;7.90;;;0.40;96.30;;;;;;4878858;29;20292;-77
2022/01/19 17:32:58;;;;;;;10.43;6.33;;;0.40;96.30;;;;;;4879683;29;20481;-78
2022/01/19 17:35:24;;;;;;;12.00;7.03;;;0.40;96.30;;;;;;4858967;29;20455;-77
2022/01/19 17:37:50;;;;;;;13.53;7.30;;;0.40;96.30;;;;;;4872970;29;20698;-79
2022/01/19 17:40:15;;;;;;;12.53;8.90;;;0.50;96.30;;;;;;4862136;29;20606;-78
2022/01/19 17:42:41;;;;;;;12.57;6.30;;;0.50;96.30;;;;;;4856441;29;20212;-79
2022/01/19 17:45:18;;;;;;;15.03;8.90;;;0.50;96.30;;;;;;4865439;29;20550;-79
2022/01/19 17:47:54;;;;;;;9.93;6.90;;;0.50;96.30;;;;;;4851685;29;20180;-79
2022/01/19 17:50:49;;;;;;;12.37;7.40;;;0.50;96.30;;;;;;4877913;29;20421;-79
2022/01/19 17:53:17;;;;;;;12.70;7.90;;;0.60;96.30;;;;;;4880354;29;20810;-79
2022/01/19 17:55:45;;;;;;;10.27;7.73;;;0.70;96.30;;;;;;4872243;29;20431;-78
2022/01/19 17:58:11;;;;;;;9.03;7.50;;;0.70;96.30;;;;;;4870855;29;20438;-79
2022/01/19 18:00:37;;;;;;;9.70;6.70;;;0.70;96.30;;;;;;4878714;29;20469;-79
2022/01/19 18:03:03;;;;;;;10.27;6.80;;;0.70;96.30;;;;;;4878587;29;20437;-79
2022/01/19 18:05:32;;;;;;;9.53;6.73;;;0.70;96.30;;;;;;4876634;29;20180;-79
2022/01/19 18:07:58;;;;;;;10.73;7.17;;;0.70;96.30;;;;;;4879421;29;20449;-79
2022/01/19 18:16:47;;;;;;;9.77;6.70;;;0.70;96.30;;;;;;4900801;29;20468;-80
2022/01/19 18:19:12;;;;;;;10.10;7.00;;;0.70;96.30;;;;;;4960076;23;20503;-78
2022/01/19 18:21:38;;;;;;;9.73;6.73;;;0.70;96.30;;;;;;4899889;29;20486;-79
2022/01/19 18:24:04;;;;;;;9.20;6.70;;;0.70;96.30;;;;;;4899335;29;20176;-80
2022/01/19 18:26:29;;;;;;;7.63;6.10;;;0.70;96.30;;;;;;4899539;29;20177;-81
2022/01/19 18:28:55;;;;;;;8.87;6.50;;;0.70;96.30;;;;;;4899651;29;20334;-80
2022/01/19 18:31:22;;;;;;;10.03;7.00;;;0.80;96.30;;;;;;4899498;29;20177;-80
2022/01/19 18:33:48;;;;;;;11.60;7.60;;;0.70;96.30;;;;;;4898415;29;21038;-81
2022/01/19 18:36:14;;;;;;;13.63;8.20;;;0.70;96.30;;;;;;4896614;29;20459;-80
2022/01/19 18:38:40;;;;;;;10.60;7.33;;;0.70;96.30;;;;;;4898771;29;20513;-80
2022/01/19 18:41:09;;;;;;;10.47;6.50;;;0.70;96.30;;;;;;4898988;29;20428;-81
2022/01/19 18:43:35;;;;;;;10.07;6.70;;;0.60;96.30;;;;;;4899983;29;20229;-78
2022/01/19 18:46:03;;;;;;;10.47;7.70;;;0.60;96.30;;;;;;4892979;29;20445;-81
2022/01/19 18:48:29;;;;;;;10.50;7.00;;;0.60;96.30;;;;;;4884979;29;20616;-81
2022/01/19 18:50:56;;;;;;;9.33;8.13;;;0.60;96.30;;;;;;4899702;29;20401;-80
2022/01/19 18:53:21;;;;;;;9.50;6.70;;;0.60;96.30;;;;;;4901992;29;20177;-80
2022/01/19 18:55:49;;;;;;;16.37;9.80;;;0.60;96.30;;;;;;4913199;29;20796;-80
2022/01/19 18:58:15;;;;;;;11.40;8.20;;;0.60;96.30;;;;;;4897262;29;20177;-79
2022/01/19 19:00:45;;;;;;;10.67;7.83;;;0.60;96.30;;;;;;4897138;29;21004;-81
2022/01/19 19:03:10;;;;;;;15.03;8.70;;;0.60;96.30;;;;;;4897646;29;20169;-81
2022/01/19 19:05:38;;;;;;;11.13;7.40;;;0.60;96.30;;;;;;4897050;29;20422;-81
2022/01/19 19:08:05;;;;;;;12.97;7.93;;;0.70;96.30;;;;;;4898935;29;20211;-81
2022/01/19 19:10:53;;;;;;;15.07;10.30;;;0.60;96.30;;;;;;4898904;29;20443;-78
2022/01/19 19:13:17;;;;;;;10.87;8.00;;;0.60;96.30;;;;;;4898191;29;20788;-79
2022/01/19 19:15:43;;;;;;;10.43;6.50;;;0.60;96.30;;;;;;4897275;29;20429;-79
2022/01/19 19:18:08;;;;;;;11.70;8.00;;;0.60;96.30;;;;;;4898173;29;20189;-80
2022/01/19 19:20:34;;;;;;;9.20;7.50;;;0.60;96.30;;;;;;4902391;29;20227;-79
2022/01/19 19:22:59;;;;;;;8.90;6.17;;;0.60;96.30;;;;;;4898643;29;20173;-78
2022/01/19 19:25:28;;;;;;;9.63;7.10;;;0.70;96.30;;;;;;4898192;29;20179;-78
2022/01/19 19:27:56;;;;;;;5.47;4.80;;;0.70;96.30;;;;;;4898252;29;20177;-77
2022/01/19 19:30:24;;;;;;;9.73;6.27;;;0.70;96.30;;;;;;4880114;29;20437;-77
2022/01/19 19:32:51;;;;;;;7.57;5.67;;;0.70;96.30;;;;;;4878816;29;20430;-78
2022/01/19 19:35:18;;;;;;;6.27;4.60;;;0.70;96.30;;;;;;4885590;29;20428;-79
2022/01/19 19:37:45;;;;;;;7.93;5.20;;;0.70;96.30;;;;;;4898948;29;20413;-77